Time;durP1;ratioP1;P1;durP2;ratioP2;P2;SDS_P1;SDS_P2;PMS_P1;PMS_P2;Temp;Humidity;BMP_temperature;BMP_pressure;BME280_temperature;BME280_humidity;BME280_pressure;Samples;Min_cycle;Max_cycle;Signal;HPM_P1;HPM_P2
2020/12/09 00:02:18;;;;;;;10.77;2.75;;;6.00;99.90;;;;;;4923429;29;20082;-95
2020/12/09 00:04:43;;;;;;;8.25;3.10;;;6.00;99.90;;;;;;4921944;29;20047;-95
2020/12/09 00:07:09;;;;;;;8.40;3.15;;;6.00;99.90;;;;;;4921125;29;20032;-95
2020/12/09 00:09:35;;;;;;;12.48;3.40;;;6.00;99.90;;;;;;4922348;29;20119;-95
2020/12/09 00:12:01;;;;;;;9.15;2.95;;;6.00;99.90;;;;;;4926125;29;20032;-95
2020/12/09 00:14:27;;;;;;;9.77;3.10;;;6.00;99.90;;;;;;4923581;29;20039;-95
2020/12/09 00:16:53;;;;;;;11.20;2.50;;;6.00;99.90;;;;;;4923262;29;20063;-95
2020/12/09 00:19:19;;;;;;;8.80;2.83;;;6.00;99.90;;;;;;4924138;29;20039;-95
2020/12/09 00:21:44;;;;;;;6.78;2.63;;;6.00;99.90;;;;;;4923543;29;20397;-94
2020/12/09 00:24:10;;;;;;;9.25;3.13;;;6.00;99.90;;;;;;4923150;29;20134;-94
2020/12/09 00:26:36;;;;;;;12.70;3.22;;;6.10;99.90;;;;;;4907370;29;20413;-94
2020/12/09 00:29:03;;;;;;;11.27;4.13;;;6.00;99.90;;;;;;4922550;29;20063;-94
2020/12/09 00:31:31;;;;;;;9.35;3.22;;;6.00;99.90;;;;;;4922412;29;20028;-95
2020/12/09 00:33:58;;;;;;;6.72;3.20;;;6.00;99.90;;;;;;4903832;29;20024;-94
2020/12/09 00:36:24;;;;;;;7.28;3.33;;;6.10;99.90;;;;;;4904304;29;20504;-93
2020/12/09 00:38:51;;;;;;;14.20;3.65;;;6.00;99.90;;;;;;4905170;29;20099;-94
2020/12/09 00:41:21;;;;;;;9.82;2.95;;;6.00;99.90;;;;;;4903115;29;20047;-94
2020/12/09 00:43:47;;;;;;;8.88;3.10;;;6.00;99.90;;;;;;4904160;29;20040;-95
2020/12/09 00:46:18;;;;;;;6.45;3.20;;;6.00;99.90;;;;;;4910590;29;20096;-94
2020/12/09 00:48:45;;;;;;;6.95;3.22;;;6.00;99.90;;;;;;4912652;29;20104;-94
2020/12/09 00:51:13;;;;;;;7.82;3.33;;;6.00;99.90;;;;;;4910446;29;20032;-93
2020/12/09 00:53:39;;;;;;;8.05;3.40;;;6.00;99.90;;;;;;4923717;29;20063;-93
2020/12/09 00:56:08;;;;;;;11.02;4.03;;;6.10;99.90;;;;;;4906621;29;20024;-93
2020/12/09 00:58:34;;;;;;;5.88;2.95;;;6.00;99.90;;;;;;4904835;29;20032;-92
2020/12/09 01:01:00;;;;;;;8.25;3.53;;;6.00;99.90;;;;;;4905897;29;20051;-94
2020/12/09 01:03:26;;;;;;;10.15;3.58;;;6.00;99.90;;;;;;4904535;29;20040;-93
2020/12/09 01:05:52;;;;;;;11.57;3.13;;;6.00;99.90;;;;;;4918746;29;20127;-94
2020/12/09 01:08:17;;;;;;;12.07;3.78;;;6.10;99.90;;;;;;4903052;29;20517;-95
2020/12/09 01:10:43;;;;;;;8.95;2.97;;;6.00;99.90;;;;;;4902900;29;20035;-95
2020/12/09 01:13:09;;;;;;;9.52;2.60;;;6.00;99.90;;;;;;4903334;29;20020;-96
2020/12/09 01:15:34;;;;;;;7.57;2.95;;;6.10;99.90;;;;;;4902925;29;20377;-95
2020/12/09 01:18:00;;;;;;;7.13;3.30;;;6.00;99.90;;;;;;4902409;29;20028;-96
2020/12/09 01:20:26;;;;;;;7.57;2.38;;;6.10;99.90;;;;;;4902383;29;20024;-94
2020/12/09 01:22:52;;;;;;;4.25;2.55;;;6.00;99.90;;;;;;4918229;29;20040;-95
2020/12/09 01:25:18;;;;;;;4.28;1.80;;;6.10;99.90;;;;;;4901629;29;20106;-94
2020/12/09 01:27:44;;;;;;;3.08;1.52;;;6.00;99.90;;;;;;4901108;29;20032;-95
2020/12/09 01:30:11;;;;;;;2.60;1.35;;;6.00;99.90;;;;;;4902402;29;20039;-94
2020/12/09 01:32:36;;;;;;;2.15;0.90;;;6.00;99.90;;;;;;4902223;29;20414;-93
2020/12/09 01:35:02;;;;;;;2.47;0.90;;;6.00;99.90;;;;;;4902295;29;20028;-95
2020/12/09 01:37:29;;;;;;;2.42;0.95;;;6.00;99.90;;;;;;4919005;29;20028;-94
2020/12/09 01:39:54;;;;;;;5.03;1.15;;;6.00;99.90;;;;;;4924857;29;20020;-96
2020/12/09 01:42:23;;;;;;;4.25;1.00;;;6.00;99.90;;;;;;4915595;29;20021;-95
2020/12/09 01:44:49;;;;;;;4.38;1.42;;;6.00;99.90;;;;;;4907209;29;20052;-96
2020/12/09 01:47:15;;;;;;;8.05;1.73;;;6.00;99.90;;;;;;4908571;29;20104;-95
2020/12/09 01:49:41;;;;;;;3.78;1.80;;;6.00;99.90;;;;;;4906682;29;20024;-95
2020/12/09 01:52:06;;;;;;;9.88;3.40;;;6.00;99.90;;;;;;4903136;29;20035;-95
2020/12/09 01:54:32;;;;;;;14.07;2.50;;;6.00;99.90;;;;;;4918137;29;20546;-93
2020/12/09 01:57:06;;;;;;;5.07;1.65;;;6.00;99.90;;;;;;4902482;29;20123;-94
2020/12/09 01:59:33;;;;;;;12.75;2.05;;;6.00;99.90;;;;;;4902385;29;20024;-93
2020/12/09 02:02:00;;;;;;;5.90;1.83;;;6.00;99.90;;;;;;4902074;29;20118;-94
2020/12/09 02:04:26;;;;;;;10.57;2.05;;;6.00;99.90;;;;;;4902390;29;20520;-94
2020/12/09 02:06:53;;;;;;;10.38;3.58;;;6.00;99.90;;;;;;4902242;29;20028;-94
2020/12/09 02:09:19;;;;;;;6.18;1.42;;;6.00;99.90;;;;;;4917709;29;20102;-94
2020/12/09 02:11:46;;;;;;;7.57;1.30;;;6.00;99.90;;;;;;4902013;29;20061;-94
2020/12/09 02:14:12;;;;;;;6.47;1.40;;;5.90;99.90;;;;;;4901895;29;20036;-96
2020/12/09 02:16:38;;;;;;;7.53;1.25;;;6.00;99.90;;;;;;4902396;29;20399;-95
2020/12/09 02:19:03;;;;;;;8.70;1.20;;;6.00;99.90;;;;;;4901888;29;20028;-93
2020/12/09 02:21:34;;;;;;;4.13;1.00;;;6.00;99.90;;;;;;4901617;29;20024;-94
2020/12/09 02:24:00;;;;;;;;;;;6.00;99.90;;;;;;4902409;29;20044;-95
2020/12/09 02:26:27;;;;;;;6.82;1.10;;;6.00;99.90;;;;;;4902648;29;19907;-95
2020/12/09 02:28:53;;;;;;;5.35;0.90;;;6.00;99.90;;;;;;4902362;29;20032;-95
2020/12/09 02:31:19;;;;;;;4.05;0.93;;;6.00;99.90;;;;;;4905095;29;20060;-94
2020/12/09 02:33:44;;;;;;;5.75;1.00;;;5.90;99.90;;;;;;4909736;29;20036;-95
2020/12/09 02:36:11;;;;;;;2.28;0.80;;;5.90;99.90;;;;;;4902308;29;20028;-95
2020/12/09 02:38:36;;;;;;;2.60;0.60;;;5.90;99.90;;;;;;4902363;29;20099;-94
2020/12/09 02:41:02;;;;;;;6.80;0.95;;;5.90;99.90;;;;;;4901749;29;20435;-96
2020/12/09 02:43:28;;;;;;;1.85;0.82;;;5.90;99.90;;;;;;4901716;29;20093;-95
2020/12/09 02:45:54;;;;;;;3.35;1.00;;;5.90;99.90;;;;;;4917418;29;20056;-95
2020/12/09 02:48:19;;;;;;;4.43;1.23;;;5.90;99.90;;;;;;4901381;29;20408;-95
2020/12/09 02:50:45;;;;;;;2.58;0.82;;;6.00;99.90;;;;;;4901393;29;20028;-94
2020/12/09 02:53:11;;;;;;;5.68;0.93;;;5.90;99.90;;;;;;4901283;29;20028;-95
2020/12/09 02:55:36;;;;;;;1.20;0.70;;;6.00;99.90;;;;;;4901426;29;20051;-94
2020/12/09 02:58:02;;;;;;;1.48;0.80;;;5.90;99.90;;;;;;4901569;29;20040;-93
2020/12/09 03:00:28;;;;;;;3.53;0.77;;;6.00;99.90;;;;;;4901298;29;20028;-95
2020/12/09 03:02:53;;;;;;;4.50;1.45;;;5.90;99.90;;;;;;4916810;29;20505;-94
2020/12/09 03:05:19;;;;;;;2.03;0.70;;;5.90;99.90;;;;;;4901195;29;20032;-95
2020/12/09 03:07:45;;;;;;;1.45;0.80;;;5.90;99.90;;;;;;4901451;29;20035;-94
2020/12/09 03:10:10;;;;;;;4.75;2.08;;;5.90;99.90;;;;;;4917699;29;20036;-95
2020/12/09 03:12:36;;;;;;;6.63;1.45;;;5.90;99.90;;;;;;4927385;29;20056;-95
2020/12/09 03:15:03;;;;;;;7.00;0.93;;;5.90;99.90;;;;;;4916402;29;20078;-95
2020/12/09 03:17:29;;;;;;;4.32;1.15;;;5.90;99.90;;;;;;4916753;29;20020;-95
2020/12/09 03:19:55;;;;;;;4.18;1.00;;;5.90;99.90;;;;;;4922487;29;20043;-94
2020/12/09 03:22:21;;;;;;;3.92;1.48;;;5.90;99.90;;;;;;4923194;29;20052;-96
2020/12/09 03:24:47;;;;;;;5.18;1.20;;;5.90;99.90;;;;;;4912503;29;20051;-95
2020/12/09 03:27:13;;;;;;;4.00;1.33;;;5.90;99.90;;;;;;4921366;29;20033;-95
2020/12/09 03:29:39;;;;;;;4.82;1.42;;;5.90;99.90;;;;;;4903764;29;20032;-94
2020/12/09 03:32:05;;;;;;;2.88;1.10;;;5.80;99.90;;;;;;4902781;29;20035;-94
2020/12/09 03:34:31;;;;;;;5.63;1.50;;;5.90;99.90;;;;;;4902116;29;20032;-95
2020/12/09 03:36:57;;;;;;;6.68;1.45;;;5.80;99.90;;;;;;4901273;29;20025;-94
2020/12/09 03:39:22;;;;;;;4.35;1.10;;;5.80;99.90;;;;;;4901490;29;20051;-96
2020/12/09 03:41:48;;;;;;;3.78;1.00;;;5.80;99.90;;;;;;4901566;29;20089;-95
2020/12/09 03:44:14;;;;;;;4.80;1.10;;;5.80;99.90;;;;;;4917852;29;20040;-95
2020/12/09 03:46:39;;;;;;;6.30;0.70;;;5.80;99.90;;;;;;4903025;29;20028;-95
2020/12/09 03:49:05;;;;;;;3.45;0.70;;;5.80;99.90;;;;;;4905106;29;20032;-94
2020/12/09 03:51:31;;;;;;;2.45;0.82;;;5.80;99.90;;;;;;4906535;29;20112;-96
2020/12/09 03:54:00;;;;;;;5.40;1.27;;;5.80;99.90;;;;;;4906943;29;20059;-95
2020/12/09 03:56:25;;;;;;;9.05;1.42;;;5.80;99.90;;;;;;4905295;29;20123;-95
2020/12/09 03:58:51;;;;;;;9.07;1.20;;;5.80;99.90;;;;;;4921511;29;20090;-96
2020/12/09 04:01:17;;;;;;;6.13;0.85;;;5.80;99.90;;;;;;4905429;29;20517;-93
2020/12/09 04:03:45;;;;;;;4.93;1.10;;;5.80;99.90;;;;;;4905644;29;20040;-94
2020/12/09 04:06:10;;;;;;;5.00;1.00;;;5.80;99.90;;;;;;4911938;29;20028;-95
2020/12/09 04:08:36;;;;;;;9.35;0.98;;;5.80;99.90;;;;;;4908010;29;20056;-95
2020/12/09 04:11:02;;;;;;;6.75;1.08;;;5.80;99.90;;;;;;4907116;29;20035;-96
2020/12/09 04:13:28;;;;;;;7.05;0.88;;;5.80;99.90;;;;;;4907033;29;20083;-94
2020/12/09 04:15:54;;;;;;;5.75;1.00;;;5.80;99.90;;;;;;4921761;29;20058;-95
2020/12/09 04:18:19;;;;;;;5.70;0.90;;;5.80;99.90;;;;;;4905601;29;20060;-95
2020/12/09 04:20:45;;;;;;;2.05;0.85;;;5.80;99.90;;;;;;4910499;29;20076;-94
2020/12/09 04:23:10;;;;;;;4.22;0.70;;;5.70;99.90;;;;;;4911903;29;20056;-95
2020/12/09 04:25:36;;;;;;;3.15;0.68;;;5.80;99.90;;;;;;4913516;29;20042;-96
2020/12/09 04:28:02;;;;;;;5.63;1.10;;;5.80;99.90;;;;;;4910036;29;20027;-95
2020/12/09 04:30:28;;;;;;;3.45;0.93;;;5.80;99.90;;;;;;4925468;29;20032;-96
2020/12/09 04:32:53;;;;;;;7.43;0.70;;;5.80;99.90;;;;;;4903565;29;20075;-93
2020/12/09 04:35:19;;;;;;;3.85;1.00;;;5.70;99.90;;;;;;4903722;29;20534;-95
2020/12/09 04:37:46;;;;;;;4.28;0.60;;;5.70;99.90;;;;;;4903765;29;20035;-95
2020/12/09 04:40:12;;;;;;;2.08;0.65;;;5.70;99.90;;;;;;4903867;29;20040;-94
2020/12/09 04:42:38;;;;;;;1.35;0.32;;;5.70;99.90;;;;;;4920328;29;20031;-94
2020/12/09 04:45:04;;;;;;;2.92;1.10;;;5.70;99.90;;;;;;4901820;29;20036;-95
2020/12/09 04:47:43;;;;;;;1.20;0.47;;;5.70;99.90;;;;;;4919255;29;20123;-95
2020/12/09 04:50:13;;;;;;;1.08;0.43;;;5.70;99.90;;;;;;4903690;29;20032;-94
2020/12/09 04:52:44;;;;;;;3.40;0.65;;;5.70;99.90;;;;;;4903324;29;20020;-94
2020/12/09 04:55:12;;;;;;;4.95;0.70;;;5.70;99.90;;;;;;4918919;29;20056;-94
2020/12/09 04:57:37;;;;;;;3.33;0.93;;;5.70;99.90;;;;;;4902790;29;20060;-94
2020/12/09 05:00:13;;;;;;;5.78;1.08;;;5.70;99.90;;;;;;4918799;29;20036;-95
2020/12/09 05:02:53;;;;;;;7.95;1.35;;;5.60;99.90;;;;;;4919120;29;20059;-95
2020/12/09 05:05:24;;;;;;;9.93;1.50;;;5.60;99.90;;;;;;4903827;29;20062;-94
2020/12/09 05:07:52;;;;;;;5.68;1.13;;;5.60;99.90;;;;;;4904040;29;20115;-95
2020/12/09 05:10:21;;;;;;;6.18;0.98;;;5.60;99.90;;;;;;4904089;29;20043;-94
2020/12/09 05:12:51;;;;;;;2.17;0.65;;;5.60;99.90;;;;;;4903420;29;20043;-94
2020/12/09 05:15:24;;;;;;;4.32;1.10;;;5.60;99.90;;;;;;4902321;29;20024;-94
2020/12/09 05:18:08;;;;;;;4.82;0.82;;;5.60;99.90;;;;;;4901873;29;20047;-95
2020/12/09 05:20:36;;;;;;;2.05;0.90;;;5.60;99.90;;;;;;4901963;29;20039;-95
2020/12/09 05:23:03;;;;;;;4.75;0.80;;;5.60;99.90;;;;;;4916807;29;20036;-95
2020/12/09 05:25:30;;;;;;;2.95;0.73;;;5.60;99.90;;;;;;4901310;29;20079;-94
2020/12/09 05:27:56;;;;;;;3.30;0.70;;;5.60;99.90;;;;;;4901229;29;20028;-95
2020/12/09 05:30:46;;;;;;;4.43;0.70;;;5.60;99.90;;;;;;4901216;29;20040;-93
2020/12/09 05:33:20;;;;;;;2.97;0.90;;;5.60;99.90;;;;;;4901247;29;20056;-93
2020/12/09 05:36:02;;;;;;;3.97;0.75;;;5.60;99.90;;;;;;4905155;29;20028;-93
2020/12/09 05:38:29;;;;;;;6.35;0.70;;;5.60;99.90;;;;;;4901951;29;20553;-94
2020/12/09 05:40:55;;;;;;;3.50;0.93;;;5.60;99.90;;;;;;4901619;29;20028;-95
2020/12/09 05:43:22;;;;;;;3.55;0.80;;;5.60;99.90;;;;;;4901243;29;20086;-94
2020/12/09 05:45:48;;;;;;;4.15;1.20;;;5.60;99.90;;;;;;4901967;29;20123;-93
2020/12/09 05:48:18;;;;;;;4.25;1.10;;;5.60;99.90;;;;;;4919508;29;20127;-94
2020/12/09 05:50:56;;;;;;;3.30;0.90;;;5.60;99.90;;;;;;4902486;29;20028;-95
2020/12/09 05:53:26;;;;;;;7.15;1.27;;;5.60;99.90;;;;;;4902124;29;20507;-93
2020/12/09 05:56:07;;;;;;;5.30;1.60;;;5.60;99.90;;;;;;4902326;29;20043;-93
2020/12/09 05:58:33;;;;;;;3.90;1.35;;;5.60;99.90;;;;;;4902237;29;20032;-94
2020/12/09 06:01:17;;;;;;;7.70;1.25;;;5.50;99.90;;;;;;4901795;29;20386;-94
2020/12/09 06:03:53;;;;;;;6.63;1.15;;;5.50;99.90;;;;;;4902205;29;20047;-94
2020/12/09 06:06:23;;;;;;;6.90;1.60;;;5.50;99.90;;;;;;4918145;29;20028;-94
2020/12/09 06:08:57;;;;;;;10.73;1.80;;;5.50;99.90;;;;;;4902100;29;20027;-94
2020/12/09 06:11:27;;;;;;;7.68;1.42;;;5.50;99.90;;;;;;4901762;29;20024;-93
2020/12/09 06:13:53;;;;;;;5.07;1.27;;;5.50;99.90;;;;;;4917887;29;20367;-94
2020/12/09 06:16:20;;;;;;;5.45;1.50;;;5.50;99.90;;;;;;4902013;29;20139;-94
2020/12/09 06:18:55;;;;;;;4.85;1.13;;;5.50;99.90;;;;;;4901737;29;20028;-94
2020/12/09 06:21:24;;;;;;;7.38;1.50;;;5.50;99.90;;;;;;4900396;29;20028;-94
2020/12/09 06:23:54;;;;;;;11.07;1.45;;;5.50;99.90;;;;;;4900409;29;20545;-93
2020/12/09 06:26:19;;;;;;;5.03;1.40;;;5.50;99.90;;;;;;4895682;29;20047;-96
2020/12/09 06:28:47;;;;;;;5.70;1.30;;;5.50;99.90;;;;;;4900341;29;20115;-94
2020/12/09 06:31:22;;;;;;;11.10;1.95;;;5.50;99.90;;;;;;4900464;29;20031;-95
2020/12/09 06:33:53;;;;;;;7.28;1.83;;;5.50;99.90;;;;;;4900412;29;20023;-94
2020/12/09 06:36:23;;;;;;;7.32;1.83;;;5.50;99.90;;;;;;4900453;29;20054;-93
2020/12/09 06:39:06;;;;;;;6.22;1.67;;;5.50;99.90;;;;;;4916260;29;20032;-93
2020/12/09 06:41:37;;;;;;;10.60;2.03;;;5.50;99.90;;;;;;4916116;29;20575;-94
2020/12/09 06:44:06;;;;;;;6.10;2.10;;;5.40;99.90;;;;;;4900198;29;20052;-94
2020/12/09 06:46:49;;;;;;;5.85;1.90;;;5.50;99.90;;;;;;4914263;29;20099;-94
2020/12/09 06:49:27;;;;;;;7.28;1.30;;;5.40;99.90;;;;;;4897040;29;20035;-94
2020/12/09 06:51:57;;;;;;;8.13;1.90;;;5.40;99.90;;;;;;4918429;29;20020;-94
2020/12/09 06:54:39;;;;;;;7.05;2.05;;;5.40;99.90;;;;;;4910516;29;20044;-93
2020/12/09 06:57:20;;;;;;;5.45;1.15;;;5.50;99.90;;;;;;4930518;29;20028;-95
2020/12/09 06:59:48;;;;;;;7.82;1.20;;;5.40;99.90;;;;;;4918587;29;20024;-95
2020/12/09 07:02:26;;;;;;;7.00;1.20;;;5.40;99.90;;;;;;4939166;29;20012;-94
2020/12/09 07:04:54;;;;;;;5.03;1.20;;;5.40;99.90;;;;;;4933844;29;20048;-94
2020/12/09 07:07:33;;;;;;;7.78;1.77;;;5.40;99.90;;;;;;4925071;29;20027;-94
2020/12/09 07:10:00;;;;;;;5.82;1.52;;;5.40;99.90;;;;;;4922409;29;20028;-95
2020/12/09 07:12:26;;;;;;;10.30;1.88;;;5.40;99.90;;;;;;4918057;29;20553;-93
2020/12/09 07:14:54;;;;;;;9.85;1.50;;;5.40;99.90;;;;;;4920265;29;20088;-94
2020/12/09 07:17:22;;;;;;;11.00;2.05;;;5.40;99.90;;;;;;4903258;29;20045;-94
2020/12/09 07:19:49;;;;;;;8.38;2.53;;;5.40;99.90;;;;;;4902647;29;20042;-94
2020/12/09 07:22:16;;;;;;;10.60;2.65;;;5.40;99.90;;;;;;4904719;29;20051;-93
2020/12/09 07:24:42;;;;;;;12.15;2.30;;;5.40;99.90;;;;;;4903668;29;20040;-93
2020/12/09 07:27:12;;;;;;;10.45;2.78;;;5.40;99.90;;;;;;4903108;29;20332;-93
2020/12/09 07:29:54;;;;;;;10.15;2.30;;;5.40;99.90;;;;;;4902531;29;20514;-93
2020/12/09 07:32:22;;;;;;;11.05;2.45;;;5.40;99.90;;;;;;4916945;29;20016;-92
2020/12/09 07:35:08;;;;;;;16.25;3.38;;;5.40;99.90;;;;;;4902995;29;20088;-94
2020/12/09 07:37:43;;;;;;;10.30;3.10;;;5.40;99.90;;;;;;4916636;29;20024;-93
2020/12/09 07:40:30;;;;;;;10.40;2.60;;;5.40;99.90;;;;;;4902785;29;20091;-94
2020/12/09 07:43:03;;;;;;;11.07;2.50;;;5.40;99.90;;;;;;4901312;29;20043;-93
2020/12/09 07:45:29;;;;;;;12.50;2.50;;;5.40;99.90;;;;;;4916195;29;20020;-93
2020/12/09 07:48:00;;;;;;;14.90;3.60;;;5.40;99.90;;;;;;4901273;29;20522;-94
2020/12/09 07:50:26;;;;;;;19.80;3.30;;;5.40;99.90;;;;;;4902815;29;20031;-95
2020/12/09 07:52:51;;;;;;;14.93;3.22;;;5.40;99.90;;;;;;4903880;29;20028;-95
2020/12/09 07:55:20;;;;;;;12.10;3.03;;;5.40;99.90;;;;;;4915133;29;20052;-93
2020/12/09 07:57:46;;;;;;;14.18;3.72;;;5.40;99.90;;;;;;4910916;29;20032;-94
2020/12/09 08:00:14;;;;;;;19.73;3.40;;;5.40;99.90;;;;;;4895512;29;20096;-94
2020/12/09 08:02:42;;;;;;;12.35;2.72;;;5.40;99.90;;;;;;4906949;29;20028;-94
2020/12/09 08:05:22;;;;;;;11.20;1.92;;;5.40;99.90;;;;;;4906248;29;20044;-95
2020/12/09 08:10:45;;;;;;;9.80;1.90;;;5.40;99.90;;;;;;4948487;23;20684;-94
2020/12/09 08:13:11;;;;;;;6.10;2.03;;;5.40;99.90;;;;;;4918522;29;20031;-96
2020/12/09 08:15:42;;;;;;;9.13;1.77;;;5.40;99.90;;;;;;4917226;29;20090;-95
2020/12/09 08:18:08;;;;;;;12.38;2.45;;;5.40;99.90;;;;;;4917180;29;20034;-95
2020/12/09 08:20:50;;;;;;;14.35;2.17;;;5.40;99.90;;;;;;4919247;29;20028;-94
2020/12/09 08:23:18;;;;;;;6.15;1.88;;;5.30;99.90;;;;;;4925080;29;20031;-95
2020/12/09 08:25:54;;;;;;;12.30;2.78;;;5.30;99.90;;;;;;4951478;28;20048;-96
2020/12/09 08:28:21;;;;;;;15.63;2.42;;;5.40;99.90;;;;;;4924717;29;20051;-96
2020/12/09 08:30:48;;;;;;;15.80;2.28;;;5.40;99.90;;;;;;4921453;29;20020;-95
2020/12/09 08:33:16;;;;;;;10.70;1.85;;;5.40;99.90;;;;;;4924651;29;20103;-96
2020/12/09 08:35:46;;;;;;;8.57;2.95;;;5.40;99.90;;;;;;4939308;29;20486;-95
2020/12/09 08:38:40;;;;;;;17.23;2.80;;;5.40;99.90;;;;;;4924471;29;20031;-95
2020/12/09 08:41:08;;;;;;;16.23;2.58;;;5.40;99.90;;;;;;4926321;29;20639;-94
2020/12/09 08:43:35;;;;;;;8.27;1.80;;;5.40;99.90;;;;;;4926500;29;20584;-95
2020/12/09 08:46:06;;;;;;;13.48;2.70;;;5.40;99.90;;;;;;4923432;29;20086;-95
2020/12/09 08:48:39;;;;;;;20.08;2.03;;;5.40;99.90;;;;;;4940323;29;20050;-96
2020/12/09 09:05:29;;;;;;;19.27;3.65;;;5.50;99.90;;;;;;5649383;23;20070;-94
2020/12/09 09:21:34;;;;;;;16.85;2.80;;;5.60;99.90;;;;;;5015883;23;20046;-95
2020/12/09 09:26:38;;;;;;;10.23;3.05;;;5.60;99.90;;;;;;4966431;28;20493;-95
2020/12/09 10:16:59;;;;;;;25.70;4.57;;;5.70;99.90;;;;;;5141716;23;20319;31
2020/12/09 10:22:05;;;;;;;16.73;4.07;;;5.70;99.90;;;;;;4997948;23;20051;-96
2020/12/09 10:24:31;;;;;;;23.73;4.63;;;5.70;99.90;;;;;;4955525;29;20043;-96
2020/12/09 10:43:38;;;;;;;22.67;4.53;;;5.80;99.90;;;;;;5687184;23;20084;-96
2020/12/09 10:46:05;;;;;;;13.23;4.05;;;5.80;99.90;;;;;;4922561;29;20043;-95
2020/12/09 10:56:32;;;;;;;12.88;3.97;;;5.80;99.90;;;;;;5400929;23;2149966;-95
2020/12/09 10:59:02;;;;;;;13.70;4.38;;;5.80;99.90;;;;;;4942570;29;20099;-94
2020/12/09 11:26:20;;;;;;;26.92;8.50;;;5.80;99.90;;;;;;5365369;23;20055;-95
2020/12/09 11:28:49;;;;;;;23.70;10.18;;;5.80;99.90;;;;;;5106351;23;20076;-96
2020/12/09 11:50:17;;;;;;;49.38;18.80;;;6.00;99.90;;;;;;5091100;23;20110;-96
2020/12/09 11:52:46;;;;;;;46.88;17.55;;;6.00;99.90;;;;;;5158925;23;20107;-96
2020/12/09 11:55:17;;;;;;;43.50;18.42;;;6.00;99.90;;;;;;5086638;23;20043;-95
2020/12/09 13:29:59;;;;;;;13.15;2.45;;;6.80;99.90;;;;;;5629245;23;20111;-96
2020/12/09 13:32:33;;;;;;;12.70;1.98;;;6.80;99.90;;;;;;4928748;28;20023;-96
2020/12/09 13:52:02;;;;;;;9.65;3.90;;;6.60;99.90;;;;;;4920895;29;20080;-95
2020/12/09 13:54:29;;;;;;;7.50;2.47;;;6.50;99.90;;;;;;4903293;29;20033;-96
2020/12/09 14:28:01;;;;;;;9.82;2.08;;;6.20;99.90;;;;;;5161851;23;20047;-95
2020/12/09 14:30:26;;;;;;;8.68;2.03;;;6.20;99.90;;;;;;5123429;23;20055;-96
2020/12/09 14:49:07;;;;;;;9.45;2.40;;;6.10;99.90;;;;;;5391691;23;20053;-87
2020/12/09 15:13:25;;;;;;;3.15;1.60;;;5.90;99.90;;;;;;4935673;29;20063;-95
2020/12/09 15:18:33;;;;;;;6.40;1.58;;;6.00;99.90;;;;;;4972117;23;19913;-95
2020/12/09 15:20:59;;;;;;;6.63;1.95;;;5.90;99.90;;;;;;4937012;29;20032;-95
2020/12/09 15:23:26;;;;;;;7.50;2.13;;;5.90;99.90;;;;;;4936658;29;20080;-96
2020/12/09 15:25:51;;;;;;;8.02;1.40;;;5.90;99.90;;;;;;4931143;29;20278;-95
2020/12/09 15:28:17;;;;;;;7.22;2.05;;;6.00;99.90;;;;;;4929225;29;20032;-96
2020/12/09 15:30:44;;;;;;;7.45;1.70;;;6.00;99.90;;;;;;4926389;29;20035;-96
2020/12/09 15:33:11;;;;;;;8.18;1.92;;;5.90;99.90;;;;;;4929906;29;20079;-95
2020/12/09 15:35:37;;;;;;;10.88;1.80;;;5.90;99.90;;;;;;4930037;29;20027;-96
2020/12/09 15:38:04;;;;;;;10.25;2.00;;;5.90;99.90;;;;;;4927718;29;20024;-96
2020/12/09 15:40:30;;;;;;;16.38;3.20;;;5.90;99.90;;;;;;4924472;29;20086;-96
2020/12/09 15:42:56;;;;;;;9.07;2.08;;;5.90;99.90;;;;;;4931259;29;20775;-95
2020/12/09 15:45:22;;;;;;;7.00;1.65;;;5.90;99.90;;;;;;4929878;29;20044;-95
2020/12/09 15:47:48;;;;;;;10.55;2.10;;;5.90;99.90;;;;;;4936223;29;20025;-96
2020/12/09 15:50:16;;;;;;;10.30;1.95;;;5.80;99.90;;;;;;4933897;29;20032;-96
2020/12/09 15:52:43;;;;;;;11.80;2.55;;;5.80;99.90;;;;;;4948315;29;20027;-96
2020/12/09 15:55:10;;;;;;;10.52;2.97;;;5.80;99.90;;;;;;4950596;29;20489;-96
2020/12/09 15:57:40;;;;;;;12.35;3.03;;;5.80;99.90;;;;;;4948246;29;20020;-96
2020/12/09 16:00:11;;;;;;;13.57;3.40;;;5.70;99.90;;;;;;4949928;29;20040;-96
2020/12/09 16:02:39;;;;;;;13.73;3.30;;;5.70;99.90;;;;;;4949047;29;20067;-94
2020/12/09 16:05:06;;;;;;;11.68;2.20;;;5.70;99.90;;;;;;4951064;29;20099;-94
2020/12/09 16:07:35;;;;;;;9.18;2.05;;;5.60;99.90;;;;;;4950062;29;20035;-94
2020/12/09 16:10:03;;;;;;;8.98;2.22;;;5.60;99.90;;;;;;4949772;29;20035;-96
2020/12/09 16:12:29;;;;;;;8.10;2.38;;;5.60;99.90;;;;;;4946551;29;20030;-94
2020/12/09 16:14:57;;;;;;;10.25;2.63;;;5.60;99.90;;;;;;4948906;29;20028;-93
2020/12/09 16:17:23;;;;;;;10.68;2.47;;;5.60;99.90;;;;;;4950498;29;20055;-95
2020/12/09 16:19:49;;;;;;;11.25;2.65;;;5.60;99.90;;;;;;4946385;29;20028;-94
2020/12/09 16:22:17;;;;;;;17.33;3.28;;;5.60;99.90;;;;;;4952546;29;20066;-95
2020/12/09 16:24:43;;;;;;;11.27;3.25;;;5.50;99.90;;;;;;4959199;29;20036;-96
2020/12/09 16:27:09;;;;;;;13.50;3.25;;;5.50;99.90;;;;;;4955568;29;20028;-95
2020/12/09 16:29:35;;;;;;;14.20;3.15;;;5.50;99.90;;;;;;4958151;29;20028;-96
2020/12/09 16:32:06;;;;;;;11.30;3.10;;;5.50;99.90;;;;;;4959900;29;20039;-96
2020/12/09 16:34:32;;;;;;;9.23;3.47;;;5.40;99.90;;;;;;4957227;29;20240;-96
2020/12/09 16:36:59;;;;;;;11.95;3.25;;;5.40;99.90;;;;;;4961851;29;20043;-96
2020/12/09 16:39:30;;;;;;;8.63;2.80;;;5.40;99.90;;;;;;4957760;29;20019;-96
2020/12/09 16:41:56;;;;;;;13.25;3.35;;;5.40;99.90;;;;;;5064038;23;20088;-96
2020/12/09 16:44:25;;;;;;;6.97;3.00;;;5.30;99.90;;;;;;4938417;29;20481;-96
2020/12/09 16:46:51;;;;;;;10.88;3.17;;;5.30;99.90;;;;;;4937055;29;20019;-96
2020/12/09 16:49:18;;;;;;;13.25;3.20;;;5.30;99.90;;;;;;4951116;29;20095;-96
2020/12/09 16:51:45;;;;;;;14.52;3.72;;;5.20;99.90;;;;;;4955702;29;20043;-96
2020/12/09 16:54:15;;;;;;;13.07;4.00;;;5.20;99.90;;;;;;4955908;29;20035;-95
2020/12/09 16:56:41;;;;;;;10.57;2.75;;;5.20;99.90;;;;;;4946972;29;20007;-95
2020/12/09 16:59:08;;;;;;;12.70;3.45;;;5.10;99.90;;;;;;4936873;29;20192;-96
2020/12/09 17:01:35;;;;;;;17.73;4.55;;;5.10;99.90;;;;;;4931930;29;20537;-96
2020/12/09 17:04:01;;;;;;;16.08;4.15;;;5.10;99.90;;;;;;4930833;29;20036;-96
2020/12/09 17:06:27;;;;;;;14.60;4.18;;;5.00;99.90;;;;;;4947389;29;20108;-96
2020/12/09 17:08:54;;;;;;;17.00;4.32;;;5.00;99.90;;;;;;4946818;29;20098;-96
2020/12/09 17:11:20;;;;;;;10.40;3.60;;;5.00;99.90;;;;;;4929303;29;20063;-96
2020/12/09 17:13:50;;;;;;;14.02;4.32;;;5.00;99.90;;;;;;4932610;29;20024;-96
2020/12/09 17:16:18;;;;;;;12.48;4.70;;;5.00;99.90;;;;;;4933381;29;20032;-95
2020/12/09 17:18:47;;;;;;;16.00;4.70;;;5.10;99.90;;;;;;4930075;29;20410;-96
2020/12/09 17:21:21;;;;;;;13.65;5.32;;;5.10;99.90;;;;;;4950901;29;20642;-96
2020/12/09 17:23:55;;;;;;;10.23;4.70;;;5.10;99.90;;;;;;4952150;29;20035;-96
2020/12/09 17:46:26;;;;;;;16.73;5.35;;;4.60;99.90;;;;;;5300288;23;20080;-96
2020/12/09 17:48:52;;;;;;;14.20;4.80;;;4.60;99.90;;;;;;4939730;29;20103;-95
2020/12/09 17:51:19;;;;;;;16.65;4.72;;;4.60;99.90;;;;;;4932377;29;20028;-95
2020/12/09 17:53:45;;;;;;;12.90;5.28;;;4.50;99.90;;;;;;4930260;29;20027;-95
2020/12/09 17:56:11;;;;;;;16.75;4.63;;;4.50;99.90;;;;;;4927025;29;20560;-94
2020/12/09 17:58:37;;;;;;;11.07;3.75;;;4.60;99.90;;;;;;4927024;29;20028;-95
2020/12/09 18:01:04;;;;;;;13.80;4.47;;;4.60;99.90;;;;;;4929512;29;20028;-95
2020/12/09 18:03:33;;;;;;;12.70;4.50;;;4.60;99.90;;;;;;4928530;29;20043;-96
2020/12/09 18:06:02;;;;;;;13.43;4.30;;;4.60;99.90;;;;;;4927836;29;20090;-94
2020/12/09 18:08:38;;;;;;;14.20;4.82;;;4.60;99.90;;;;;;4929026;29;20024;-95
2020/12/09 18:11:06;;;;;;;18.77;4.55;;;4.50;99.90;;;;;;4926562;29;20111;-96
2020/12/09 18:13:35;;;;;;;17.88;4.95;;;4.50;99.90;;;;;;4922155;29;20115;-94
2020/12/09 18:16:06;;;;;;;15.38;4.82;;;4.50;99.90;;;;;;4919692;29;20039;-93
2020/12/09 18:18:33;;;;;;;;;;;4.50;99.90;;;;;;4921745;29;20529;-94
2020/12/09 18:20:59;;;;;;;23.15;7.07;;;4.50;99.90;;;;;;4924583;29;20021;-95
2020/12/09 18:23:25;;;;;;;22.10;5.95;;;4.50;99.90;;;;;;4920597;29;20020;-95
2020/12/09 18:25:50;;;;;;;14.32;5.55;;;4.50;99.90;;;;;;4920224;29;20032;-95
2020/12/09 18:28:16;;;;;;;19.05;6.60;;;4.40;99.90;;;;;;4919903;29;20024;-95
2020/12/09 18:30:42;;;;;;;13.65;6.15;;;4.40;99.90;;;;;;4927009;29;20032;-96
2020/12/09 18:33:09;;;;;;;16.45;4.80;;;4.40;99.90;;;;;;4928442;29;20025;-95
2020/12/09 18:35:36;;;;;;;17.25;4.57;;;4.40;99.90;;;;;;4930447;29;20032;-95
2020/12/09 18:38:03;;;;;;;21.65;5.68;;;4.40;99.90;;;;;;4930753;29;20032;-95
2020/12/09 18:40:29;;;;;;;10.05;4.82;;;4.40;99.90;;;;;;4931014;29;20031;-96
2020/12/09 18:42:57;;;;;;;19.58;4.97;;;4.40;99.90;;;;;;4928051;29;20050;-96
2020/12/09 18:45:23;;;;;;;15.00;4.93;;;4.50;99.90;;;;;;4928017;29;20052;-96
2020/12/09 18:47:52;;;;;;;15.25;4.65;;;4.50;99.90;;;;;;4913498;29;20040;-96
2020/12/09 18:50:18;;;;;;;14.68;5.40;;;4.50;99.90;;;;;;4927777;29;20048;-96
2020/12/09 18:52:54;;;;;;;22.10;5.60;;;4.50;99.90;;;;;;4928931;29;20509;-96